Time;durP1;ratioP1;P1;durP2;ratioP2;P2;SDS_P1;SDS_P2;PMS_P1;PMS_P2;Temp;Humidity;BMP_temperature;BMP_pressure;BME280_temperature;BME280_humidity;BME280_pressure;Samples;Min_cycle;Max_cycle;Signal;HPM_P1;HPM_P2
2022/02/22 00:00:28;;;;;;;14.53;3.20;;;6.60;99.90;;;;;;5135781;27;20411;-45
2022/02/22 00:02:54;;;;;;;15.73;3.53;;;6.60;99.90;;;;;;5136112;27;20409;-45
2022/02/22 00:05:21;;;;;;;16.43;3.30;;;6.60;99.90;;;;;;5135906;27;20483;-45
2022/02/22 00:07:48;;;;;;;11.60;3.27;;;6.50;99.90;;;;;;5136370;27;20788;-45
2022/02/22 00:10:16;;;;;;;12.40;3.50;;;6.70;99.90;;;;;;5135677;27;20438;-45
2022/02/22 00:12:43;;;;;;;10.93;2.40;;;6.70;99.90;;;;;;5136122;27;20672;-46
2022/02/22 00:15:10;;;;;;;9.47;3.27;;;6.70;99.90;;;;;;5136781;27;20502;-46
2022/02/22 00:17:39;;;;;;;8.37;2.37;;;6.70;99.90;;;;;;5136594;27;20870;-45
2022/02/22 00:20:07;;;;;;;6.47;2.60;;;6.80;99.90;;;;;;5136022;27;20818;-45
2022/02/22 00:22:34;;;;;;;8.23;2.20;;;6.70;99.90;;;;;;5135885;27;20944;-45
2022/02/22 00:25:02;;;;;;;11.20;3.30;;;6.80;99.90;;;;;;5135447;27;20491;-45
2022/02/22 00:27:29;;;;;;;6.00;2.80;;;6.80;99.90;;;;;;5135599;27;20447;-45
2022/02/22 00:29:56;;;;;;;12.77;3.17;;;6.70;99.90;;;;;;5135061;27;20405;-45
2022/02/22 00:32:23;;;;;;;10.23;3.47;;;6.70;99.90;;;;;;5134321;27;20448;-45
2022/02/22 00:34:50;;;;;;;11.57;3.67;;;6.70;99.90;;;;;;5121481;27;20464;-45
2022/02/22 00:37:16;;;;;;;12.37;3.60;;;6.70;99.90;;;;;;5114883;28;20400;-46
2022/02/22 00:39:43;;;;;;;10.03;2.60;;;6.70;99.90;;;;;;5114542;28;20413;-45
2022/02/22 00:42:09;;;;;;;12.20;2.97;;;6.60;99.90;;;;;;5114736;28;20441;-45
2022/02/22 00:44:37;;;;;;;11.70;3.33;;;6.60;99.90;;;;;;5114670;28;20420;-45
2022/02/22 00:47:04;;;;;;;8.50;3.83;;;6.70;99.90;;;;;;5114473;28;20480;-45
2022/02/22 00:49:31;;;;;;;10.90;2.40;;;6.70;99.90;;;;;;5114199;28;20788;-45
2022/02/22 00:51:58;;;;;;;11.73;3.37;;;6.70;99.90;;;;;;5114605;28;20411;-45
2022/02/22 00:54:24;;;;;;;11.90;3.47;;;6.70;99.90;;;;;;5114235;28;20966;-46
2022/02/22 00:56:51;;;;;;;8.93;3.20;;;6.70;99.90;;;;;;5114663;28;20430;-46
2022/02/22 00:59:17;;;;;;;11.70;3.13;;;6.70;99.90;;;;;;5114388;28;20433;-46
2022/02/22 01:01:45;;;;;;;11.73;3.10;;;6.70;99.90;;;;;;5128906;27;20937;-46
2022/02/22 01:04:12;;;;;;;10.50;2.77;;;6.70;99.90;;;;;;5134431;27;20923;-45
2022/02/22 01:06:39;;;;;;;7.17;2.13;;;6.70;99.90;;;;;;5135000;27;20457;-46
2022/02/22 01:09:06;;;;;;;6.37;2.20;;;6.70;99.90;;;;;;5134554;27;20436;-46
2022/02/22 01:11:33;;;;;;;9.77;2.90;;;6.70;99.90;;;;;;5134686;27;20945;-46
2022/02/22 01:14:00;;;;;;;9.67;2.40;;;6.70;99.90;;;;;;5134568;27;20438;-46
2022/02/22 01:16:27;;;;;;;8.40;2.90;;;6.60;99.90;;;;;;5133292;27;20441;-46
2022/02/22 01:18:55;;;;;;;7.23;3.17;;;6.80;99.90;;;;;;5134201;27;20431;-46
2022/02/22 01:21:21;;;;;;;11.47;2.57;;;6.80;99.90;;;;;;5134605;27;20780;-46
2022/02/22 01:23:48;;;;;;;8.80;2.63;;;6.80;99.90;;;;;;5134327;27;20424;-46
2022/02/22 01:26:15;;;;;;;5.30;2.20;;;6.80;99.90;;;;;;5134091;27;20480;-46
2022/02/22 01:28:41;;;;;;;8.20;2.10;;;6.80;99.90;;;;;;5134115;27;20438;-46
2022/02/22 01:31:08;;;;;;;8.20;2.03;;;6.80;99.90;;;;;;5134445;27;20415;-46
2022/02/22 01:33:34;;;;;;;9.00;1.70;;;6.80;99.90;;;;;;5131060;27;20421;-46
2022/02/22 01:36:03;;;;;;;8.33;2.50;;;6.80;99.90;;;;;;5113567;28;20784;-46
2022/02/22 01:38:29;;;;;;;7.43;2.30;;;6.80;99.90;;;;;;5113251;28;20409;-45
2022/02/22 01:40:56;;;;;;;11.80;3.33;;;6.80;99.90;;;;;;5113530;28;20434;-46
2022/02/22 01:43:23;;;;;;;6.37;2.17;;;6.80;99.90;;;;;;5113690;28;20873;-46
2022/02/22 01:45:50;;;;;;;10.03;2.10;;;6.80;99.90;;;;;;5113620;28;20435;-46
2022/02/22 01:48:16;;;;;;;9.00;2.37;;;6.90;99.90;;;;;;5113442;28;20430;-46
2022/02/22 01:50:44;;;;;;;7.10;2.23;;;6.90;99.90;;;;;;5113143;28;20798;-46
2022/02/22 01:53:12;;;;;;;6.53;2.73;;;6.90;99.90;;;;;;5113363;28;20416;-46
2022/02/22 01:55:39;;;;;;;10.07;2.60;;;6.90;99.90;;;;;;5111871;28;20488;-46
2022/02/22 01:58:06;;;;;;;6.70;2.20;;;6.90;99.90;;;;;;5113199;28;20477;-46
2022/02/22 02:00:32;;;;;;;12.93;2.73;;;6.90;99.90;;;;;;5116945;27;20423;-46
2022/02/22 02:02:59;;;;;;;8.80;2.43;;;6.90;99.90;;;;;;5133582;27;20434;-47
2022/02/22 02:05:26;;;;;;;5.13;2.17;;;6.90;99.90;;;;;;5133699;27;20822;-46
2022/02/22 02:07:54;;;;;;;12.30;2.50;;;6.90;99.90;;;;;;5133544;27;20472;-46
2022/02/22 02:10:22;;;;;;;6.80;2.40;;;6.90;99.90;;;;;;5133318;27;20438;-46
2022/02/22 02:12:48;;;;;;;6.07;1.97;;;6.90;99.90;;;;;;5133343;27;20403;-46
2022/02/22 02:15:15;;;;;;;14.07;2.93;;;6.90;99.90;;;;;;5133356;27;20555;-46
2022/02/22 02:17:42;;;;;;;13.70;2.60;;;6.90;99.90;;;;;;5133579;27;20429;-45
2022/02/22 02:20:11;;;;;;;6.10;3.07;;;6.90;99.90;;;;;;5133155;27;20433;-46
2022/02/22 02:22:40;;;;;;;6.50;2.30;;;6.90;99.90;;;;;;5133285;27;20794;-46
2022/02/22 02:25:08;;;;;;;8.43;2.27;;;6.90;99.90;;;;;;5133419;27;20841;-46
2022/02/22 02:27:35;;;;;;;8.20;2.40;;;6.90;99.90;;;;;;5133541;27;20477;-46
2022/02/22 02:30:02;;;;;;;9.10;2.80;;;6.90;99.90;;;;;;5132823;27;20411;-46
2022/02/22 02:32:29;;;;;;;8.17;2.17;;;6.90;99.90;;;;;;5133335;27;20486;-45
2022/02/22 02:34:56;;;;;;;10.63;2.60;;;6.90;99.90;;;;;;5116814;27;20668;-45
2022/02/22 02:37:23;;;;;;;10.63;2.37;;;6.90;99.90;;;;;;5112835;28;20442;-45
2022/02/22 02:39:52;;;;;;;6.80;2.17;;;6.90;99.90;;;;;;5112113;28;20425;-45
2022/02/22 02:42:19;;;;;;;8.67;2.30;;;6.90;99.90;;;;;;5112669;28;20829;-45
2022/02/22 02:44:47;;;;;;;8.13;3.20;;;6.90;99.90;;;;;;5112290;28;20460;-45
2022/02/22 02:47:14;;;;;;;6.23;2.27;;;6.90;99.90;;;;;;5112410;28;20450;-45
2022/02/22 02:49:41;;;;;;;9.03;2.53;;;6.90;99.90;;;;;;5111870;28;20404;-45
2022/02/22 02:52:09;;;;;;;8.23;2.07;;;6.90;99.90;;;;;;5112468;28;20461;-45
2022/02/22 02:54:37;;;;;;;3.57;2.27;;;6.90;99.90;;;;;;5112268;28;20477;-45
2022/02/22 02:57:05;;;;;;;7.43;2.60;;;6.90;99.90;;;;;;5112995;28;20496;-45
2022/02/22 02:59:32;;;;;;;10.83;3.57;;;7.00;99.90;;;;;;5111904;28;20437;-45
2022/02/22 03:01:59;;;;;;;11.53;2.67;;;7.00;99.90;;;;;;5128656;27;20449;-45
2022/02/22 03:04:26;;;;;;;11.67;2.97;;;6.90;99.90;;;;;;5132857;27;20454;-46
2022/02/22 03:06:52;;;;;;;11.37;3.97;;;6.90;99.90;;;;;;5132645;27;20477;-45
2022/02/22 03:09:20;;;;;;;12.33;3.37;;;7.00;99.90;;;;;;5132375;27;20404;-45
2022/02/22 03:11:48;;;;;;;11.17;3.50;;;7.00;99.90;;;;;;5132729;28;20921;-45
2022/02/22 03:14:16;;;;;;;7.77;2.60;;;6.90;99.90;;;;;;5132539;28;20631;-45
2022/02/22 03:16:43;;;;;;;9.27;2.30;;;7.00;99.90;;;;;;5132520;28;20429;-45
2022/02/22 03:19:11;;;;;;;13.57;2.87;;;7.00;99.90;;;;;;5132185;28;20414;-45
2022/02/22 03:21:38;;;;;;;8.67;2.30;;;7.00;99.90;;;;;;5132870;28;20416;-45
2022/02/22 03:24:05;;;;;;;12.03;3.60;;;6.90;99.90;;;;;;5132618;28;20435;-45
2022/02/22 03:26:32;;;;;;;14.20;2.50;;;6.90;99.90;;;;;;5132468;27;20471;-45
2022/02/22 03:28:59;;;;;;;7.43;2.03;;;6.90;99.90;;;;;;5135256;27;20429;-45
2022/02/22 03:31:27;;;;;;;11.23;2.73;;;6.90;99.90;;;;;;5136608;27;20927;-45
2022/02/22 03:33:54;;;;;;;12.93;2.73;;;6.90;99.90;;;;;;5130426;27;20954;-45
2022/02/22 03:36:21;;;;;;;5.80;2.20;;;6.90;99.90;;;;;;5116070;28;20439;-45
2022/02/22 03:38:48;;;;;;;4.80;1.80;;;6.90;99.90;;;;;;5115506;28;20486;-44
2022/02/22 03:41:15;;;;;;;7.93;2.00;;;6.80;99.90;;;;;;5115818;28;20417;-44
2022/02/22 03:43:41;;;;;;;6.90;2.50;;;6.80;99.90;;;;;;5115644;28;20399;-45
2022/02/22 03:46:08;;;;;;;13.23;2.67;;;6.90;99.90;;;;;;5115901;28;20468;-44
2022/02/22 03:48:36;;;;;;;7.53;1.87;;;6.90;99.90;;;;;;5115428;28;20981;-45
2022/02/22 03:51:02;;;;;;;6.03;2.07;;;6.90;99.90;;;;;;5115784;28;20441;-45
2022/02/22 03:53:29;;;;;;;8.43;2.43;;;6.80;99.90;;;;;;5115713;28;20826;-44
2022/02/22 03:55:56;;;;;;;10.07;3.20;;;6.80;99.90;;;;;;5115303;28;20465;-47
2022/02/22 03:58:22;;;;;;;14.13;3.33;;;6.80;99.90;;;;;;5115321;27;20433;-46
2022/02/22 04:00:49;;;;;;;9.90;2.73;;;6.80;99.90;;;;;;5121979;27;20953;-46
2022/02/22 04:03:16;;;;;;;10.10;2.93;;;6.80;99.90;;;;;;5136307;27;20783;-45
2022/02/22 04:05:46;;;;;;;9.77;2.40;;;6.80;99.90;;;;;;5136395;27;20864;-45
2022/02/22 04:08:12;;;;;;;11.23;3.73;;;6.80;99.90;;;;;;5136199;27;20531;-46
2022/02/22 04:10:39;;;;;;;21.23;4.10;;;6.80;99.90;;;;;;5135889;27;20396;-47
2022/02/22 04:13:06;;;;;;;15.40;4.10;;;6.70;99.90;;;;;;5136148;27;20485;-47
2022/02/22 04:15:32;;;;;;;10.37;3.13;;;6.70;99.90;;;;;;5135936;27;20471;-45
2022/02/22 04:17:59;;;;;;;17.73;3.23;;;6.70;99.90;;;;;;5135888;27;20926;-45
2022/02/22 04:20:26;;;;;;;26.07;4.67;;;6.70;99.90;;;;;;5135552;27;20508;-45
2022/02/22 04:22:54;;;;;;;17.30;3.70;;;6.70;99.90;;;;;;5134504;27;20803;-45
2022/02/22 04:25:20;;;;;;;15.03;3.60;;;6.60;99.90;;;;;;5135336;27;20790;-45
2022/02/22 04:27:47;;;;;;;15.27;3.50;;;6.40;99.90;;;;;;5135221;27;20475;-45
2022/02/22 04:30:14;;;;;;;21.10;3.50;;;6.60;99.90;;;;;;5135176;27;20928;-45
2022/02/22 04:32:40;;;;;;;18.00;4.30;;;6.60;99.90;;;;;;5135467;27;20432;-45
2022/02/22 04:35:08;;;;;;;13.57;3.33;;;6.60;99.90;;;;;;5119186;27;20457;-46
2022/02/22 04:37:35;;;;;;;10.87;3.30;;;6.60;99.90;;;;;;5114809;28;20502;-45
2022/02/22 04:40:04;;;;;;;13.90;3.30;;;6.60;99.90;;;;;;5113391;28;20441;-44
2022/02/22 04:42:30;;;;;;;12.97;3.23;;;6.60;99.90;;;;;;5114693;28;20411;-45
2022/02/22 04:44:57;;;;;;;22.33;3.43;;;6.50;99.90;;;;;;5114472;28;20483;-45
2022/02/22 04:47:24;;;;;;;11.87;3.00;;;6.40;99.90;;;;;;5114505;28;20564;-45
2022/02/22 04:49:50;;;;;;;15.67;3.67;;;6.40;99.90;;;;;;5114287;28;20937;-45
2022/02/22 04:52:17;;;;;;;24.70;3.90;;;6.40;99.90;;;;;;5114632;28;20802;-45
2022/02/22 04:54:43;;;;;;;16.83;4.07;;;6.30;99.90;;;;;;5115340;28;20459;-45
2022/02/22 04:57:11;;;;;;;12.73;4.03;;;6.30;99.90;;;;;;5115324;28;20813;-45
2022/02/22 04:59:38;;;;;;;15.90;4.30;;;6.20;99.90;;;;;;5114417;28;20399;-45
2022/02/22 05:02:05;;;;;;;13.80;3.80;;;6.20;99.90;;;;;;5132036;27;20734;-45
2022/02/22 05:04:31;;;;;;;15.00;3.90;;;6.20;99.90;;;;;;5135346;27;20527;-45
2022/02/22 05:06:58;;;;;;;18.13;4.07;;;5.80;99.90;;;;;;5134838;27;20479;-45
2022/02/22 05:09:24;;;;;;;11.50;3.87;;;6.10;99.90;;;;;;5134581;27;20438;-44
2022/02/22 05:11:51;;;;;;;18.70;4.90;;;6.00;99.90;;;;;;5134734;27;20956;-45
2022/02/22 05:14:19;;;;;;;15.93;3.80;;;6.00;99.90;;;;;;5134434;27;20476;-44
2022/02/22 05:16:46;;;;;;;10.43;4.30;;;6.00;99.90;;;;;;5134638;27;20402;-45
2022/02/22 05:19:12;;;;;;;14.87;3.20;;;6.00;99.90;;;;;;5134536;27;20434;-45
2022/02/22 05:21:41;;;;;;;15.23;5.60;;;6.00;99.90;;;;;;5134665;27;20439;-45
2022/02/22 05:24:08;;;;;;;17.10;3.78;;;6.10;99.90;;;;;;5134737;27;20435;-45
2022/02/22 05:26:35;;;;;;;15.33;3.73;;;6.10;99.90;;;;;;5134608;27;20274;-45
2022/02/22 05:29:02;;;;;;;12.93;3.97;;;6.10;99.90;;;;;;5134106;27;20476;-45
2022/02/22 05:31:30;;;;;;;15.70;3.37;;;6.10;99.90;;;;;;5134451;27;20434;-45
2022/02/22 05:33:57;;;;;;;27.48;4.63;;;6.10;99.90;;;;;;5128223;27;20482;-45
2022/02/22 05:36:24;;;;;;;20.53;4.80;;;6.10;99.90;;;;;;5113566;28;21042;-45
2022/02/22 05:38:51;;;;;;;13.40;4.57;;;6.00;99.90;;;;;;5113305;28;20444;-45
2022/02/22 05:41:18;;;;;;;23.77;4.67;;;6.00;99.90;;;;;;5113745;28;20932;-45
2022/02/22 05:43:46;;;;;;;18.83;4.40;;;6.00;99.90;;;;;;5113449;28;20520;-45
2022/02/22 05:46:13;;;;;;;11.47;3.53;;;6.00;99.90;;;;;;5113631;28;20449;-45
2022/02/22 05:48:41;;;;;;;19.53;4.80;;;6.10;99.90;;;;;;5113443;28;20504;-46
2022/02/22 05:51:08;;;;;;;23.70;5.53;;;6.10;99.90;;;;;;5113665;28;20439;-45
2022/02/22 05:53:35;;;;;;;16.13;4.40;;;6.10;99.90;;;;;;5113421;28;20948;-46
2022/02/22 05:56:01;;;;;;;15.00;4.30;;;6.10;99.90;;;;;;5113188;28;20464;-45
2022/02/22 05:58:28;;;;;;;17.52;4.40;;;6.20;99.90;;;;;;5112558;28;20428;-45
2022/02/22 06:00:54;;;;;;;26.50;5.93;;;6.20;99.90;;;;;;5120598;27;20201;-45
2022/02/22 06:03:21;;;;;;;17.93;4.57;;;6.10;99.90;;;;;;5133589;27;20411;-45
2022/02/22 06:05:49;;;;;;;14.23;4.10;;;6.00;99.90;;;;;;5133745;27;20448;-45
2022/02/22 06:08:16;;;;;;;18.30;4.80;;;6.20;99.90;;;;;;5133668;27;20450;-45
2022/02/22 06:10:42;;;;;;;23.83;5.37;;;6.20;99.90;;;;;;5134596;27;20426;-45
2022/02/22 06:13:09;;;;;;;23.80;4.80;;;6.20;99.90;;;;;;5134053;27;20505;-45
2022/02/22 06:15:35;;;;;;;18.37;4.20;;;6.10;99.90;;;;;;5133179;27;20486;-45
2022/02/22 06:18:02;;;;;;;25.43;5.20;;;6.20;99.90;;;;;;5133084;27;20405;-45
2022/02/22 06:20:30;;;;;;;15.90;3.97;;;6.20;99.90;;;;;;5133296;27;20435;-45
2022/02/22 06:22:58;;;;;;;17.27;4.47;;;6.20;99.90;;;;;;5133639;27;20442;-45
2022/02/22 06:25:26;;;;;;;24.38;5.03;;;5.90;99.90;;;;;;5133387;27;20443;-45
2022/02/22 06:27:54;;;;;;;21.13;6.63;;;6.20;99.90;;;;;;5133569;27;20214;-45
2022/02/22 06:30:22;;;;;;;24.63;6.67;;;6.20;99.90;;;;;;5132847;27;20427;-45
2022/02/22 06:32:51;;;;;;;26.57;7.27;;;6.20;99.90;;;;;;5133017;27;20442;-46
2022/02/22 06:35:19;;;;;;;21.10;6.80;;;6.20;99.90;;;;;;5114834;27;20437;-46
2022/02/22 06:37:45;;;;;;;22.60;5.60;;;6.20;99.90;;;;;;5112377;28;20439;-44
2022/02/22 06:40:14;;;;;;;18.07;4.20;;;6.20;99.90;;;;;;5112141;28;20681;-46
2022/02/22 06:42:40;;;;;;;21.77;4.70;;;6.20;99.90;;;;;;5112041;28;20415;-46
2022/02/22 06:45:09;;;;;;;24.07;4.70;;;6.30;99.90;;;;;;5112133;28;21062;-47
2022/02/22 06:47:38;;;;;;;22.67;5.50;;;6.30;99.90;;;;;;5112455;28;20496;-45
2022/02/22 06:50:07;;;;;;;15.07;4.87;;;6.30;99.90;;;;;;5111523;28;20481;-46
2022/02/22 06:52:33;;;;;;;14.83;4.63;;;6.30;99.90;;;;;;5112088;28;20403;-45
2022/02/22 06:55:00;;;;;;;19.43;4.70;;;6.30;99.90;;;;;;5112964;28;20461;-45
2022/02/22 06:57:28;;;;;;;23.00;5.30;;;6.40;99.90;;;;;;5111878;28;20444;-47
2022/02/22 06:59:56;;;;;;;21.93;5.07;;;6.30;99.90;;;;;;5111958;28;20491;-46
2022/02/22 07:02:22;;;;;;;17.87;5.13;;;6.30;99.90;;;;;;5131715;27;20430;-46
2022/02/22 07:04:49;;;;;;;14.23;4.63;;;6.40;99.90;;;;;;5132905;27;20451;-46
2022/02/22 07:07:16;;;;;;;19.63;5.30;;;6.40;99.90;;;;;;5132564;27;20866;-45
2022/02/22 07:09:43;;;;;;;21.47;4.53;;;6.40;99.90;;;;;;5132569;27;20410;-45
2022/02/22 07:12:10;;;;;;;15.73;4.07;;;6.30;99.90;;;;;;5132800;27;20431;-46
2022/02/22 07:14:37;;;;;;;24.90;6.17;;;6.30;99.90;;;;;;5132464;28;20524;-46
2022/02/22 07:17:07;;;;;;;14.50;5.43;;;6.30;99.90;;;;;;5132345;28;20790;-46
2022/02/22 07:19:34;;;;;;;24.87;4.90;;;6.20;99.90;;;;;;5132072;28;20407;-45
2022/02/22 07:22:00;;;;;;;21.33;5.27;;;6.30;99.90;;;;;;5131912;28;20443;-46
2022/02/22 07:24:27;;;;;;;15.87;4.70;;;6.30;99.90;;;;;;5132329;28;20444;-45
2022/02/22 07:26:53;;;;;;;20.33;4.57;;;6.30;99.90;;;;;;5132357;28;20447;-46
2022/02/22 07:29:20;;;;;;;15.60;5.80;;;6.30;99.90;;;;;;5132135;28;20484;-45
2022/02/22 07:31:47;;;;;;;20.03;3.87;;;6.40;99.90;;;;;;5132614;28;20467;-46
2022/02/22 07:34:15;;;;;;;20.60;5.27;;;6.50;99.90;;;;;;5123601;28;20446;-45
2022/02/22 07:36:42;;;;;;;19.10;4.60;;;6.50;99.90;;;;;;5111625;28;20630;-46
2022/02/22 07:39:09;;;;;;;22.03;6.80;;;6.60;99.90;;;;;;5111229;28;20424;-46
2022/02/22 07:41:36;;;;;;;24.73;5.33;;;6.50;99.90;;;;;;5112040;28;20471;-45
2022/02/22 07:44:02;;;;;;;27.23;5.50;;;6.60;99.90;;;;;;5111715;28;20428;-45
2022/02/22 07:46:29;;;;;;;18.80;4.90;;;6.70;99.90;;;;;;5111950;28;20437;-45
2022/02/22 07:48:56;;;;;;;20.83;6.40;;;6.60;99.90;;;;;;5111624;28;20442;-45
2022/02/22 07:51:24;;;;;;;16.17;5.27;;;6.50;99.90;;;;;;5111694;28;20438;-46
2022/02/22 07:53:50;;;;;;;26.90;4.93;;;6.50;99.90;;;;;;5111571;28;20832;-46
2022/02/22 07:56:17;;;;;;;15.17;5.30;;;6.50;99.90;;;;;;5111259;28;20809;-46
2022/02/22 07:58:44;;;;;;;19.60;5.93;;;6.50;99.90;;;;;;5110728;28;20428;-46
2022/02/22 08:01:11;;;;;;;17.37;5.10;;;6.50;99.90;;;;;;5120764;28;20417;-45
2022/02/22 08:03:39;;;;;;;24.67;4.93;;;6.50;99.90;;;;;;5131969;28;20441;-45
2022/02/22 08:06:06;;;;;;;21.70;4.70;;;6.50;99.90;;;;;;5131788;27;20430;-46
2022/02/22 08:08:34;;;;;;;22.03;4.67;;;6.50;99.90;;;;;;5131270;27;20494;-45
2022/02/22 08:11:01;;;;;;;17.73;5.00;;;6.50;99.90;;;;;;5132161;28;20433;-45
2022/02/22 08:13:27;;;;;;;20.63;5.33;;;6.50;99.90;;;;;;5131773;27;20828;-45
2022/02/22 08:15:54;;;;;;;14.00;5.13;;;6.60;99.90;;;;;;5134505;27;20452;-46
2022/02/22 08:18:20;;;;;;;16.00;4.10;;;6.70;99.90;;;;;;5135531;27;20423;-46
2022/02/22 08:20:47;;;;;;;17.20;3.87;;;6.80;99.90;;;;;;5135079;27;20420;-45
2022/02/22 08:23:14;;;;;;;18.17;4.30;;;6.80;99.90;;;;;;5135392;27;20925;-46
2022/02/22 08:25:42;;;;;;;17.30;5.67;;;6.90;99.90;;;;;;5135407;27;20810;-45
2022/02/22 08:28:10;;;;;;;16.53;4.27;;;7.00;99.90;;;;;;5135126;27;20568;-46
2022/02/22 08:30:38;;;;;;;15.43;3.63;;;7.00;99.90;;;;;;5134872;27;20433;-45
2022/02/22 08:33:06;;;;;;;19.70;4.30;;;7.10;99.90;;;;;;5135106;27;20438;-46
2022/02/22 08:35:33;;;;;;;19.30;4.77;;;7.10;99.90;;;;;;5115522;28;20965;-45
2022/02/22 08:37:59;;;;;;;16.60;4.43;;;7.10;99.90;;;;;;5114868;28;20423;-44
2022/02/22 08:40:26;;;;;;;13.20;4.80;;;7.10;99.90;;;;;;5114442;28;20435;-46
2022/02/22 08:42:54;;;;;;;14.47;4.97;;;7.10;99.90;;;;;;5114899;28;20448;-45
2022/02/22 08:45:21;;;;;;;20.40;4.60;;;7.10;99.90;;;;;;5114601;28;20541;-47
2022/02/22 08:47:48;;;;;;;16.60;5.37;;;7.00;99.90;;;;;;5114451;28;20440;-45
2022/02/22 08:50:14;;;;;;;11.20;3.80;;;7.00;99.90;;;;;;5113916;28;20609;-45
2022/02/22 08:52:41;;;;;;;14.30;3.60;;;7.00;99.90;;;;;;5114446;28;20411;-46
2022/02/22 08:55:08;;;;;;;16.33;4.03;;;7.00;99.90;;;;;;5114317;28;20862;-45
2022/02/22 08:57:35;;;;;;;17.03;5.00;;;7.00;99.90;;;;;;5114509;28;20978;-46
2022/02/22 09:00:09;;;;;;;16.23;5.20;;;7.10;99.90;;;;;;5114491;28;20434;-45
2022/02/22 09:02:36;;;;;;;12.67;5.17;;;7.10;99.90;;;;;;5114740;28;20959;-45
2022/02/22 09:05:03;;;;;;;26.30;5.37;;;7.10;99.90;;;;;;5115157;28;21034;-47
2022/02/22 09:07:30;;;;;;;15.80;3.90;;;7.10;99.90;;;;;;5114675;28;20942;-45
2022/02/22 09:09:56;;;;;;;15.37;3.60;;;7.60;99.90;;;;;;5113867;28;20471;-45
2022/02/22 09:12:23;;;;;;;13.70;3.60;;;7.20;99.90;;;;;;5114504;28;20422;-46
2022/02/22 09:14:49;;;;;;;12.77;3.53;;;7.20;99.90;;;;;;5114388;28;20454;-44
2022/02/22 09:17:17;;;;;;;14.73;3.77;;;7.20;99.90;;;;;;5114149;28;20799;-46
2022/02/22 09:19:44;;;;;;;16.50;4.40;;;7.30;99.90;;;;;;5113688;28;20430;-45
2022/02/22 09:22:11;;;;;;;12.70;3.70;;;7.40;99.90;;;;;;5114407;28;20432;-45
2022/02/22 09:24:38;;;;;;;15.87;3.40;;;7.50;99.90;;;;;;5114155;28;20469;-46
2022/02/22 09:27:05;;;;;;;14.67;4.93;;;7.50;99.90;;;;;;5113785;28;20439;-46
2022/02/22 09:29:32;;;;;;;13.20;2.80;;;7.60;99.90;;;;;;5113624;28;20470;-46
2022/02/22 09:31:58;;;;;;;12.57;4.30;;;7.60;99.90;;;;;;5114148;28;20464;-46
2022/02/22 09:34:26;;;;;;;12.30;3.10;;;7.70;99.90;;;;;;5123877;27;20784;-46
2022/02/22 09:36:53;;;;;;;9.27;2.63;;;7.80;99.90;;;;;;5134167;27;20478;-46
2022/02/22 09:39:20;;;;;;;16.63;4.10;;;7.90;99.90;;;;;;5134304;27;20819;-46
2022/02/22 09:41:46;;;;;;;9.87;3.10;;;8.00;99.90;;;;;;5127053;27;20458;-46
2022/02/22 09:44:13;;;;;;;8.97;2.97;;;8.10;99.90;;;;;;5123068;27;20462;-46
2022/02/22 09:46:40;;;;;;;10.80;2.80;;;8.10;99.90;;;;;;5113079;28;20445;-46
2022/02/22 09:49:07;;;;;;;11.83;3.40;;;8.20;99.90;;;;;;5112980;28;20513;-45
2022/02/22 09:51:35;;;;;;;12.83;3.53;;;8.30;99.90;;;;;;5128944;27;20452;-46
2022/02/22 09:54:02;;;;;;;12.03;3.27;;;8.30;99.90;;;;;;5133648;27;20436;-45
2022/02/22 09:56:28;;;;;;;24.20;3.50;;;8.30;99.90;;;;;;5133442;27;20939;-45
2022/02/22 09:58:55;;;;;;;11.83;3.40;;;8.30;99.90;;;;;;5127326;27;20783;-45
2022/02/22 10:01:22;;;;;;;13.63;3.37;;;8.30;99.90;;;;;;5123885;27;20443;-45
2022/02/22 10:03:57;;;;;;;7.57;2.77;;;8.30;99.90;;;;;;5133677;27;20439;-45
2022/02/22 10:06:25;;;;;;;9.53;2.80;;;8.30;99.90;;;;;;5133337;27;20741;-44
2022/02/22 10:08:56;;;;;;;11.53;3.33;;;8.30;99.90;;;;;;5132767;27;20444;-45
2022/02/22 10:11:23;;;;;;;11.43;4.03;;;8.20;99.90;;;;;;5132777;27;20919;-45
2022/02/22 10:13:50;;;;;;;9.57;2.90;;;8.20;99.90;;;;;;5133104;27;20432;-45
2022/02/22 10:16:17;;;;;;;15.20;4.07;;;8.20;99.90;;;;;;5124974;27;20456;-45
2022/02/22 10:18:48;;;;;;;17.80;4.07;;;8.10;99.90;;;;;;5111560;28;20466;-44
2022/02/22 10:21:16;;;;;;;13.13;3.07;;;8.00;99.90;;;;;;5112590;28;20467;-45
2022/02/22 10:23:43;;;;;;;6.23;3.13;;;8.00;99.90;;;;;;5112295;28;20435;-44
2022/02/22 10:26:19;;;;;;;11.03;3.00;;;7.90;99.90;;;;;;5112399;28;20829;-45
2022/02/22 10:28:46;;;;;;;13.53;3.87;;;7.90;99.90;;;;;;5112281;28;20575;-45
2022/02/22 10:31:13;;;;;;;8.57;3.10;;;7.90;99.90;;;;;;5112438;28;20497;-44
2022/02/22 10:33:44;;;;;;;11.60;4.13;;;8.00;99.90;;;;;;5112776;28;20511;-46
2022/02/22 10:36:18;;;;;;;11.80;3.57;;;8.00;99.90;;;;;;5112227;28;20484;-45
2022/02/22 10:38:45;;;;;;;9.67;3.30;;;8.20;99.90;;;;;;5111309;27;20435;-45
2022/02/22 10:41:15;;;;;;;10.60;4.27;;;8.20;99.90;;;;;;5112206;28;20423;-45
2022/02/22 10:43:49;;;;;;;16.70;4.33;;;8.30;99.90;;;;;;5131654;27;20445;-45
2022/02/22 10:46:16;;;;;;;15.10;3.13;;;8.30;99.90;;;;;;5132460;27;20518;-45
2022/02/22 10:48:44;;;;;;;8.43;3.20;;;8.30;99.90;;;;;;5132639;27;20759;-49
2022/02/22 10:51:12;;;;;;;12.87;3.80;;;8.30;99.80;;;;;;5117765;27;20439;-45
2022/02/22 10:53:41;;;;;;;19.77;4.00;;;8.30;99.90;;;;;;5111821;28;20432;-45
2022/02/22 10:56:10;;;;;;;16.00;4.80;;;8.40;99.90;;;;;;5112348;28;20468;-45
2022/02/22 10:58:41;;;;;;;16.47;4.60;;;8.50;99.90;;;;;;5111789;28;20447;-46
2022/02/22 11:01:10;;;;;;;16.40;3.90;;;8.50;99.90;;;;;;5120974;27;20808;-46
2022/02/22 11:03:37;;;;;;;13.80;3.90;;;8.50;99.90;;;;;;5132492;27;20541;-45
2022/02/22 11:06:04;;;;;;;13.03;3.53;;;8.50;99.90;;;;;;5132490;27;20466;-45
2022/02/22 11:08:33;;;;;;;16.30;4.30;;;8.50;99.90;;;;;;5132978;27;20875;-45
2022/02/22 11:11:05;;;;;;;17.47;3.67;;;8.50;99.90;;;;;;5133097;28;20423;-45
2022/02/22 11:13:32;;;;;;;20.33;4.30;;;8.50;99.90;;;;;;5132460;28;20444;-46
2022/02/22 11:16:12;;;;;;;10.50;3.53;;;8.40;99.90;;;;;;5128082;28;20461;-47
2022/02/22 11:18:44;;;;;;;12.60;3.13;;;8.40;99.90;;;;;;5111663;28;20485;-46
2022/02/22 11:21:11;;;;;;;16.10;3.83;;;8.40;99.90;;;;;;5112014;28;20487;-46
2022/02/22 11:23:39;;;;;;;12.17;3.90;;;8.10;99.90;;;;;;5111590;28;20768;-45
2022/02/22 11:26:12;;;;;;;12.40;3.87;;;8.20;99.90;;;;;;5111868;28;20455;-46
2022/02/22 11:28:42;;;;;;;20.97;8.73;;;8.40;99.90;;;;;;5111375;28;20439;-46
2022/02/22 11:31:12;;;;;;;12.50;2.90;;;8.40;99.90;;;;;;5111839;28;20420;-46
2022/02/22 11:33:41;;;;;;;12.83;4.23;;;8.40;99.90;;;;;;5111247;28;20439;-45
2022/02/22 11:36:08;;;;;;;18.57;4.17;;;8.50;99.90;;;;;;5111281;28;20482;-47
2022/02/22 11:38:46;;;;;;;15.13;4.30;;;8.60;99.90;;;;;;5110794;28;20436;-47
2022/02/22 11:41:18;;;;;;;14.32;4.50;;;8.60;99.90;;;;;;5111033;28;20903;-46
2022/02/22 11:43:53;;;;;;;8.37;2.60;;;8.80;99.90;;;;;;5121473;28;20674;-46
2022/02/22 11:46:33;;;;;;;9.23;3.60;;;8.90;99.90;;;;;;5131870;28;20454;-47
2022/02/22 11:49:03;;;;;;;11.57;3.10;;;8.80;99.90;;;;;;5132950;27;20435;-46
2022/02/22 11:51:39;;;;;;;9.23;3.17;;;8.90;99.90;;;;;;5119027;27;20414;-46
2022/02/22 11:54:11;;;;;;;8.00;2.90;;;8.90;99.90;;;;;;5115097;28;20484;-46
2022/02/22 11:56:39;;;;;;;15.33;3.03;;;8.90;99.90;;;;;;5116617;27;20811;-46
2022/02/22 11:59:18;;;;;;;8.90;2.80;;;8.90;99.90;;;;;;5122926;27;20856;-46
2022/02/22 12:01:47;;;;;;;9.57;2.50;;;9.10;99.90;;;;;;5122086;27;20485;-45
2022/02/22 12:04:26;;;;;;;14.30;2.83;;;9.10;99.90;;;;;;5132337;27;20435;-45
2022/02/22 12:06:56;;;;;;;9.87;3.03;;;9.10;99.30;;;;;;5135949;27;20501;-46
2022/02/22 12:09:34;;;;;;;10.20;2.90;;;9.10;99.60;;;;;;5124846;27;20975;-46
2022/02/22 12:12:05;;;;;;;14.10;3.47;;;9.20;99.50;;;;;;5115479;28;20873;-47
2022/02/22 12:14:31;;;;;;;18.40;3.87;;;9.20;99.50;;;;;;5131585;27;20438;-46
2022/02/22 12:17:00;;;;;;;15.40;3.77;;;9.30;99.50;;;;;;5132410;27;20508;-44
2022/02/22 12:19:27;;;;;;;8.73;3.10;;;9.30;99.20;;;;;;5114914;28;20406;-44
2022/02/22 12:21:55;;;;;;;12.07;3.88;;;9.30;99.00;;;;;;5114323;27;20417;-46
2022/02/22 12:24:23;;;;;;;11.70;3.00;;;9.60;99.00;;;;;;5114897;28;20722;-47
2022/02/22 12:26:52;;;;;;;13.77;3.60;;;9.50;98.20;;;;;;5115400;28;20446;-46
2022/02/22 12:29:19;;;;;;;14.70;3.67;;;9.50;97.80;;;;;;5114683;28;20428;-46
2022/02/22 12:31:53;;;;;;;15.27;3.63;;;9.50;97.70;;;;;;5132460;27;20824;-46
2022/02/22 12:34:24;;;;;;;13.70;4.20;;;9.50;97.10;;;;;;5125980;27;20438;-46
2022/02/22 12:36:54;;;;;;;15.43;3.63;;;9.50;96.80;;;;;;5115033;28;20826;-46
2022/02/22 12:39:23;;;;;;;12.93;3.60;;;9.50;97.20;;;;;;5114631;27;20454;-46
2022/02/22 12:41:52;;;;;;;15.13;4.27;;;9.50;97.30;;;;;;5115009;28;20432;-47
2022/02/22 12:44:20;;;;;;;18.27;4.53;;;9.60;97.00;;;;;;5129196;27;20446;-46
2022/02/22 12:46:49;;;;;;;17.60;4.47;;;9.60;96.70;;;;;;5135219;27;20426;-46
2022/02/22 12:49:17;;;;;;;16.03;4.70;;;9.70;96.50;;;;;;5134982;27;20431;-47
2022/02/22 12:51:48;;;;;;;19.30;4.70;;;9.60;96.20;;;;;;5116276;27;20447;-47